createdAt,value
2022-11-11T00:00:50.822Z,38.50
2022-11-11T00:03:37.590Z,38.70
2022-11-11T00:06:24.211Z,46.55
2022-11-11T00:09:11.379Z,37.85
2022-11-11T00:11:58.774Z,39.95
2022-11-11T00:14:45.055Z,44.25
2022-11-11T00:17:31.331Z,36.25
2022-11-11T00:20:18.918Z,44.00
2022-11-11T00:23:05.962Z,37.58
2022-11-11T00:26:06.220Z,45.78
2022-11-11T00:29:00.014Z,36.97
2022-11-11T00:31:46.596Z,36.85
2022-11-11T00:34:32.966Z,45.10
2022-11-11T00:37:19.274Z,42.97
2022-11-11T00:40:06.078Z,38.10
2022-11-11T00:42:52.672Z,33.65
2022-11-11T00:45:39.217Z,28.42
2022-11-11T00:48:26.243Z,30.55
2022-11-11T00:51:12.960Z,40.03
2022-11-11T00:53:59.234Z,35.15
2022-11-11T00:56:45.792Z,27.50
2022-11-11T00:59:32.537Z,33.60
2022-11-11T01:02:19.169Z,36.05
2022-11-11T01:05:06.177Z,34.92
2022-11-11T01:07:53.418Z,25.00
2022-11-11T01:10:40.036Z,25.50
2022-11-11T01:13:31.711Z,29.63
2022-11-11T01:16:25.016Z,30.60
2022-11-11T01:19:11.626Z,24.67
2022-11-11T01:21:58.079Z,30.58
2022-11-11T01:24:44.684Z,25.13
2022-11-11T01:27:30.922Z,26.33
2022-11-11T01:30:17.506Z,25.85
2022-11-11T01:33:04.790Z,24.90
2022-11-11T01:35:51.362Z,24.45
2022-11-11T01:38:38.553Z,28.60
2022-11-11T01:41:28.996Z,29.15
2022-11-11T01:44:15.575Z,28.52
2022-11-11T01:47:06.036Z,45.50
2022-11-11T01:50:02.419Z,30.70
2022-11-11T01:52:49.222Z,34.60
2022-11-11T01:55:35.730Z,36.20
2022-11-11T01:58:22.463Z,38.50
2022-11-11T02:01:09.353Z,45.67
2022-11-11T02:03:58.737Z,46.20
2022-11-11T02:06:45.884Z,37.92
2022-11-11T02:09:32.696Z,35.22
2022-11-11T02:12:19.012Z,23.73
2022-11-11T02:15:05.996Z,24.75
2022-11-11T02:17:52.757Z,29.83
2022-11-11T02:20:43.838Z,34.17
2022-11-11T02:23:56.477Z,33.40
2022-11-11T02:26:45.282Z,51.92
2022-11-11T02:29:34.040Z,52.17
2022-11-11T02:32:20.534Z,52.35
2022-11-11T02:35:14.641Z,103.65
2022-11-11T02:38:02.754Z,157.10
2022-11-11T02:40:49.178Z,195.93
2022-11-11T02:43:36.266Z,215.80
2022-11-11T02:46:22.800Z,195.73
2022-11-11T02:49:09.611Z,170.35
2022-11-11T02:51:56.474Z,140.55
2022-11-11T02:54:43.545Z,130.88
2022-11-11T02:57:30.084Z,109.43
2022-11-11T03:00:17.420Z,85.88
2022-11-11T03:03:04.166Z,75.80
2022-11-11T03:05:51.116Z,107.78
2022-11-11T03:08:37.792Z,99.28
2022-11-11T03:11:24.992Z,80.03
2022-11-11T03:14:11.628Z,124.35
2022-11-11T03:16:58.192Z,142.77
2022-11-11T03:19:44.818Z,113.18
2022-11-11T03:25:46.428Z,66.18
2022-11-11T03:28:33.192Z,94.28
2022-11-11T03:31:19.417Z,209.95
2022-11-11T03:34:06.028Z,184.65
2022-11-11T03:36:52.160Z,206.35
2022-11-11T03:39:38.839Z,198.80
2022-11-11T03:42:25.165Z,152.85
2022-11-11T03:45:11.803Z,91.82
2022-11-11T03:47:58.113Z,35.45
2022-11-11T03:50:44.685Z,34.72
2022-11-11T03:53:30.912Z,28.13
2022-11-11T03:56:17.310Z,26.33
2022-11-11T03:59:03.677Z,25.50
2022-11-11T04:01:49.993Z,24.58
2022-11-11T04:04:37.162Z,28.92
2022-11-11T04:07:23.833Z,28.38
2022-11-11T04:10:10.128Z,22.80
2022-11-11T04:12:57.351Z,27.80
2022-11-11T04:15:44.025Z,25.25
2022-11-11T04:18:30.228Z,28.38
2022-11-11T04:21:16.662Z,30.92
2022-11-11T04:24:03.240Z,29.48
2022-11-11T04:26:49.358Z,22.15
2022-11-11T04:29:36.445Z,32.65
2022-11-11T04:32:23.428Z,25.40
2022-11-11T04:35:12.681Z,38.38
2022-11-11T04:37:59.241Z,32.20
2022-11-11T04:40:45.852Z,29.77
2022-11-11T04:43:32.762Z,33.55
2022-11-11T04:46:19.337Z,34.20
2022-11-11T04:49:05.661Z,28.65
2022-11-11T04:51:51.950Z,36.88
2022-11-11T04:54:38.185Z,25.33
2022-11-11T04:57:24.997Z,38.83
2022-11-11T05:00:17.180Z,32.10
2022-11-11T05:05:52.086Z,31.85
2022-11-11T05:08:41.278Z,29.73
2022-11-11T05:11:35.451Z,34.08
2022-11-11T05:14:21.999Z,38.40
2022-11-11T05:17:10.935Z,37.97
2022-11-11T05:19:57.105Z,38.47
2022-11-11T05:22:44.505Z,34.97
2022-11-11T05:25:30.846Z,32.30
2022-11-11T05:28:17.072Z,38.35
2022-11-11T05:31:03.801Z,37.72
2022-11-11T05:33:50.098Z,27.90
2022-11-11T05:36:36.436Z,39.83
2022-11-11T05:39:22.773Z,37.88
2022-11-11T05:42:09.658Z,36.47
2022-11-11T05:44:55.903Z,38.08
2022-11-11T05:47:42.208Z,36.63
2022-11-11T05:50:28.707Z,35.58
2022-11-11T05:53:14.880Z,47.30
2022-11-11T05:56:01.172Z,33.35
2022-11-11T05:58:50.566Z,51.40
2022-11-11T06:01:38.220Z,40.40
2022-11-11T06:04:25.047Z,44.45
2022-11-11T06:07:11.693Z,37.83
2022-11-11T06:09:58.500Z,47.63
2022-11-11T06:12:44.715Z,38.22
2022-11-11T06:15:34.944Z,42.63
2022-11-11T06:18:23.073Z,47.47
2022-11-11T06:21:12.881Z,52.72
2022-11-11T06:23:59.506Z,58.20
2022-11-11T06:26:45.865Z,62.30
2022-11-11T06:29:32.217Z,46.53
2022-11-11T06:32:18.627Z,49.38
2022-11-11T06:35:05.875Z,49.53
2022-11-11T06:37:52.531Z,48.80
2022-11-11T06:40:39.010Z,63.63
2022-11-11T06:43:26.570Z,48.70
2022-11-11T06:46:25.273Z,54.38
2022-11-11T06:49:11.811Z,49.78
2022-11-11T06:51:58.502Z,44.90
2022-11-11T06:54:44.802Z,45.95
2022-11-11T06:57:31.361Z,35.97
2022-11-11T07:00:18.173Z,45.70
2022-11-11T07:03:05.793Z,48.75
2022-11-11T07:05:57.525Z,63.42
2022-11-11T07:08:45.477Z,62.10
2022-11-11T07:11:31.866Z,66.90
2022-11-11T07:14:18.146Z,56.92
2022-11-11T07:17:06.452Z,43.33
2022-11-11T07:19:53.486Z,43.38
2022-11-11T07:22:40.409Z,25.92
2022-11-11T07:25:26.775Z,19.60
2022-11-11T07:28:13.475Z,21.70
2022-11-11T07:31:09.218Z,16.42
2022-11-11T07:33:55.699Z,22.83
2022-11-11T07:36:42.106Z,21.83
2022-11-11T07:39:28.494Z,17.52
2022-11-11T07:42:30.236Z,18.40
2022-11-11T07:45:17.534Z,22.77
2022-11-11T07:48:04.021Z,21.00
2022-11-11T07:50:52.149Z,20.63
2022-11-11T07:53:38.764Z,23.55
2022-11-11T07:56:25.034Z,20.60
2022-11-11T07:59:11.427Z,22.33
2022-11-11T08:01:57.647Z,17.40
2022-11-11T08:04:44.406Z,18.77
2022-11-11T08:07:30.875Z,20.60
2022-11-11T08:10:20.460Z,17.83
2022-11-11T08:13:06.926Z,15.82
2022-11-11T08:15:53.351Z,26.15
2022-11-11T08:18:39.742Z,54.42
2022-11-11T08:21:26.242Z,59.67
2022-11-11T08:27:18.995Z,74.60
2022-11-11T08:30:06.726Z,76.35
2022-11-11T08:33:31.420Z,85.70
2022-11-11T08:36:08.129Z,89.97
2022-11-11T08:38:54.545Z,79.28
2022-11-11T08:41:40.823Z,99.70
2022-11-11T08:44:27.204Z,103.60
2022-11-11T08:47:13.542Z,100.30
2022-11-11T08:49:59.941Z,78.57
2022-11-11T08:52:53.529Z,73.88
2022-11-11T08:55:39.915Z,66.30
2022-11-11T08:58:26.315Z,68.68
2022-11-11T09:01:15.937Z,57.97
2022-11-11T09:04:22.893Z,45.83
2022-11-11T09:07:11.420Z,47.30
2022-11-11T09:09:58.609Z,52.22
2022-11-11T09:12:45.302Z,50.88
2022-11-11T09:15:31.791Z,50.05
2022-11-11T09:18:18.201Z,52.72
2022-11-11T09:21:05.205Z,47.33
2022-11-11T09:23:52.005Z,49.85
2022-11-11T09:26:38.571Z,39.92
2022-11-11T09:29:24.859Z,48.08
2022-11-11T09:32:11.149Z,37.17
2022-11-11T09:34:57.676Z,41.63
2022-11-11T09:37:53.171Z,44.40
2022-11-11T09:41:05.506Z,37.67
2022-11-11T09:43:59.895Z,37.83
2022-11-11T09:46:57.171Z,38.55
2022-11-11T09:50:11.925Z,34.60
2022-11-11T09:53:05.406Z,39.22
2022-11-11T09:56:29.679Z,31.48
2022-11-11T09:59:17.752Z,25.27
2022-11-11T10:02:10.685Z,24.40
2022-11-11T10:05:15.729Z,26.80
2022-11-11T10:08:11.658Z,36.22
2022-11-11T10:11:00.998Z,23.48
2022-11-11T10:13:48.031Z,17.35
2022-11-11T10:17:06.224Z,28.17
2022-11-11T10:20:24.775Z,49.72
2022-11-11T10:23:15.577Z,49.33
2022-11-11T10:26:33.604Z,40.58
2022-11-11T10:29:21.402Z,59.40
2022-11-11T10:32:33.869Z,15.00
2022-11-11T10:35:25.636Z,14.80
2022-11-11T10:38:12.082Z,25.40
2022-11-11T10:41:20.130Z,19.58
2022-11-11T10:44:23.195Z,18.70
2022-11-11T10:47:44.599Z,81.22
2022-11-11T10:50:53.270Z,19.15
2022-11-11T10:53:49.083Z,26.60
2022-11-11T10:56:40.036Z,59.05
2022-11-11T11:00:02.751Z,30.75
2022-11-11T11:02:53.954Z,30.88
2022-11-11T11:05:56.189Z,37.47
2022-11-11T11:08:48.231Z,17.27
2022-11-11T11:11:41.739Z,41.70
2022-11-11T11:14:40.300Z,21.52
2022-11-11T11:17:35.969Z,25.98
2022-11-11T11:20:22.881Z,37.58
2022-11-11T11:23:09.340Z,28.30
2022-11-11T11:25:56.263Z,36.83
2022-11-11T11:29:08.839Z,24.10
2022-11-11T11:34:55.938Z,19.75
2022-11-11T11:37:52.622Z,19.40
2022-11-11T11:40:56.106Z,30.67
2022-11-11T11:43:43.083Z,33.03
2022-11-11T11:46:41.495Z,18.08
2022-11-11T11:49:37.278Z,25.33
2022-11-11T11:52:50.787Z,28.80
2022-11-11T11:55:59.681Z,24.77
2022-11-11T11:59:07.787Z,16.20
2022-11-11T12:02:15.698Z,22.52
2022-11-11T12:05:20.828Z,28.77
2022-11-11T12:08:19.398Z,20.42
2022-11-11T12:11:13.461Z,40.35
2022-11-11T12:14:36.643Z,24.83
2022-11-11T12:17:35.170Z,14.73
2022-11-11T12:20:35.750Z,22.92
2022-11-11T12:24:00.250Z,19.40
2022-11-11T12:27:16.158Z,30.33
2022-11-11T12:30:19.747Z,48.45
2022-11-11T12:33:18.601Z,61.03
2022-11-11T12:36:27.139Z,40.15
2022-11-11T12:39:42.512Z,42.42
2022-11-11T12:42:51.126Z,46.65
2022-11-11T12:45:45.129Z,31.52
2022-11-11T12:48:46.897Z,19.83
2022-11-11T12:51:42.319Z,41.10
2022-11-11T12:55:10.359Z,33.97
2022-11-11T12:58:42.010Z,27.60
2022-11-11T13:01:56.705Z,33.20
2022-11-11T13:05:02.853Z,36.75
2022-11-11T13:08:04.542Z,56.58
2022-11-11T13:11:16.200Z,22.35
2022-11-11T13:14:11.894Z,27.23
2022-11-11T13:17:01.643Z,32.88
2022-11-11T13:20:00.370Z,33.40
2022-11-11T13:22:50.009Z,19.20
2022-11-11T13:25:42.482Z,30.27
2022-11-11T13:28:44.241Z,55.38
2022-11-11T13:31:42.460Z,30.37
2022-11-11T13:34:32.118Z,31.45
2022-11-11T13:37:32.485Z,37.95
2022-11-11T13:40:45.219Z,21.83
2022-11-11T13:43:41.274Z,20.88
2022-11-11T13:46:37.997Z,18.95
2022-11-11T13:49:38.566Z,22.20
2022-11-11T13:52:38.384Z,17.42
2022-11-11T13:55:30.225Z,9.55
2022-11-11T13:58:31.130Z,15.52
2022-11-11T14:01:18.910Z,13.35
2022-11-11T14:04:08.573Z,13.10
2022-11-11T14:06:55.740Z,11.68
2022-11-11T14:10:00.904Z,16.17
2022-11-11T14:12:49.616Z,8.38
2022-11-11T14:15:47.790Z,13.25
2022-11-11T14:18:38.569Z,11.48
2022-11-11T14:21:59.043Z,7.90
2022-11-11T14:24:48.276Z,9.93
2022-11-11T14:27:35.694Z,13.25
2022-11-11T14:30:41.429Z,20.98
2022-11-11T14:33:55.967Z,15.32
2022-11-11T14:36:54.983Z,14.20
2022-11-11T14:40:11.364Z,12.45
2022-11-11T14:42:58.485Z,15.55
2022-11-11T14:45:44.790Z,13.70
2022-11-11T14:48:49.415Z,20.73
2022-11-11T14:51:49.394Z,43.95
2022-11-11T14:55:02.907Z,20.30
2022-11-11T14:58:02.673Z,15.70
2022-11-11T15:01:21.060Z,10.23
2022-11-11T15:04:08.762Z,12.35
2022-11-11T15:07:01.358Z,14.75
2022-11-11T15:09:48.030Z,12.43
2022-11-11T15:12:59.072Z,12.05
2022-11-11T15:16:08.988Z,16.42
2022-11-11T15:19:07.870Z,11.70
2022-11-11T15:22:16.296Z,22.00
2022-11-11T15:25:15.836Z,9.18
2022-11-11T15:28:23.819Z,12.32
2022-11-11T15:31:45.189Z,11.98
2022-11-11T15:34:45.695Z,14.00
2022-11-11T15:37:32.321Z,9.20
2022-11-11T15:40:23.486Z,13.20
2022-11-11T15:43:20.526Z,14.98
2022-11-11T15:46:07.322Z,8.43
2022-11-11T15:48:54.349Z,15.43
2022-11-11T15:51:40.918Z,11.93
2022-11-11T15:54:27.309Z,20.27
2022-11-11T15:57:30.640Z,22.88
2022-11-11T16:00:27.621Z,15.18
2022-11-11T16:03:18.359Z,13.85
2022-11-11T16:06:16.375Z,14.33
2022-11-11T16:09:04.513Z,11.57
2022-11-11T16:11:55.302Z,12.18
2022-11-11T16:14:44.338Z,10.68
2022-11-11T16:17:36.480Z,9.68
2022-11-11T16:20:33.791Z,18.80
2022-11-11T16:23:21.793Z,18.20
2022-11-11T16:26:09.392Z,11.68
2022-11-11T16:28:57.443Z,14.40
2022-11-11T16:31:45.952Z,20.30
2022-11-11T16:34:43.254Z,14.75
2022-11-11T16:37:29.717Z,26.15
2022-11-11T16:40:38.364Z,36.40
2022-11-11T16:43:57.823Z,12.02
2022-11-11T16:46:44.652Z,20.30
2022-11-11T16:50:07.184Z,25.98
2022-11-11T16:52:59.210Z,22.58
2022-11-11T16:55:46.842Z,13.40
2022-11-11T16:58:33.842Z,22.13
2022-11-11T17:01:20.599Z,23.48
2022-11-11T17:04:07.755Z,42.63
2022-11-11T17:06:59.431Z,31.90
2022-11-11T17:09:46.125Z,21.07
2022-11-11T17:12:33.198Z,28.58
2022-11-11T17:15:22.351Z,15.85
2022-11-11T17:18:08.694Z,34.72
2022-11-11T17:20:55.390Z,21.75
2022-11-11T17:23:42.024Z,22.58
2022-11-11T17:26:28.402Z,21.90
2022-11-11T17:29:15.263Z,17.92
2022-11-11T17:32:01.733Z,14.77
2022-11-11T17:34:48.041Z,20.17
2022-11-11T17:37:38.760Z,25.60
2022-11-11T17:40:25.446Z,19.63
2022-11-11T17:43:11.807Z,43.00
2022-11-11T17:46:02.375Z,23.27
2022-11-11T17:48:49.038Z,20.30
2022-11-11T17:51:35.425Z,23.83
2022-11-11T17:54:21.755Z,24.40
2022-11-11T17:57:08.253Z,11.23
2022-11-11T17:59:54.666Z,24.55
2022-11-11T18:02:41.157Z,15.07
2022-11-11T18:05:27.370Z,26.17
2022-11-11T18:08:13.769Z,19.00
2022-11-11T18:11:05.413Z,22.25
2022-11-11T18:13:53.189Z,36.45
2022-11-11T18:16:39.826Z,25.08
2022-11-11T18:19:26.227Z,29.65
2022-11-11T18:22:12.442Z,23.65
2022-11-11T18:24:58.937Z,26.10
2022-11-11T18:27:45.343Z,29.35
2022-11-11T18:30:31.770Z,31.60
2022-11-11T18:33:18.218Z,27.33
2022-11-11T18:36:10.787Z,32.78
2022-11-11T18:41:43.103Z,28.92
2022-11-11T18:44:29.569Z,56.92
2022-11-11T18:47:15.910Z,46.40
2022-11-11T18:50:02.178Z,35.70
2022-11-11T18:52:48.647Z,25.83
2022-11-11T18:55:34.980Z,26.90
2022-11-11T18:58:21.171Z,48.30
2022-11-11T19:01:10.407Z,41.45
2022-11-11T19:04:09.032Z,39.90
2022-11-11T19:06:57.471Z,27.95
2022-11-11T19:09:44.462Z,43.28
2022-11-11T19:12:30.863Z,35.83
2022-11-11T19:15:17.120Z,40.00
2022-11-11T19:18:03.769Z,34.25
2022-11-11T19:20:50.314Z,30.98
2022-11-11T19:23:37.320Z,26.98
2022-11-11T19:26:26.001Z,29.95
2022-11-11T19:29:12.664Z,89.45
2022-11-11T19:31:58.883Z,66.68
2022-11-11T19:34:45.494Z,91.22
2022-11-11T19:37:31.814Z,65.68
2022-11-11T19:40:18.613Z,105.65
2022-11-11T19:43:04.844Z,120.97
2022-11-11T19:45:52.179Z,162.50
2022-11-11T19:48:38.917Z,104.45
2022-11-11T19:51:27.600Z,107.82
2022-11-11T19:54:14.382Z,94.75
2022-11-11T19:57:00.702Z,77.20
2022-11-11T19:59:47.047Z,52.10
2022-11-11T20:02:33.733Z,41.55
2022-11-11T20:05:20.654Z,52.15
2022-11-11T20:08:07.479Z,96.15
2022-11-11T20:10:53.866Z,119.57
2022-11-11T20:13:42.754Z,98.32
2022-11-11T20:16:29.808Z,77.20
2022-11-11T20:19:16.437Z,87.00
2022-11-11T20:22:02.647Z,84.20
2022-11-11T20:24:49.026Z,123.00
2022-11-11T20:27:35.824Z,139.73
2022-11-11T20:30:22.560Z,174.88
2022-11-11T20:33:09.008Z,171.25
2022-11-11T20:35:55.413Z,145.63
2022-11-11T20:38:41.901Z,186.77
2022-11-11T20:41:28.510Z,197.88
2022-11-11T20:44:14.905Z,147.98
2022-11-11T20:47:01.297Z,182.68
2022-11-11T20:49:47.599Z,217.15
2022-11-11T20:52:34.008Z,156.52
2022-11-11T20:55:20.428Z,142.13
2022-11-11T20:58:06.786Z,121.22
2022-11-11T21:00:53.332Z,123.32
2022-11-11T21:03:40.438Z,110.20
2022-11-11T21:06:28.366Z,99.85
2022-11-11T21:09:14.643Z,79.53
2022-11-11T21:12:00.972Z,69.80
2022-11-11T21:14:47.403Z,44.28
2022-11-11T21:17:33.899Z,73.57
2022-11-11T21:20:20.246Z,113.95
2022-11-11T21:23:06.882Z,105.32
2022-11-11T21:25:53.288Z,94.68
2022-11-11T21:28:41.378Z,84.78
2022-11-11T21:31:36.379Z,83.55
2022-11-11T21:34:22.661Z,112.03
2022-11-11T21:37:09.274Z,114.20
2022-11-11T21:39:55.551Z,97.95
2022-11-11T21:42:41.896Z,107.22
2022-11-11T21:45:28.226Z,94.38
2022-11-11T21:48:14.677Z,83.55
2022-11-11T21:51:13.284Z,75.38
2022-11-11T21:54:09.378Z,67.15
2022-11-11T21:56:56.189Z,68.97
2022-11-11T21:59:42.672Z,55.10
2022-11-11T22:02:29.056Z,71.55
2022-11-11T22:05:15.870Z,57.85
2022-11-11T22:08:02.163Z,71.18
2022-11-11T22:10:48.674Z,56.80
2022-11-11T22:13:36.637Z,77.57
2022-11-11T22:16:28.729Z,81.75
2022-11-11T22:19:17.886Z,97.53
2022-11-11T22:22:04.029Z,84.07
2022-11-11T22:24:50.381Z,77.90
2022-11-11T22:27:36.909Z,69.55
2022-11-11T22:30:23.319Z,62.08
2022-11-11T22:33:09.604Z,59.25
2022-11-11T22:36:02.157Z,61.42
2022-11-11T22:38:48.739Z,63.42
2022-11-11T22:41:38.130Z,55.28
2022-11-11T22:44:24.428Z,61.85
2022-11-11T22:47:10.945Z,65.47
2022-11-11T22:49:57.242Z,70.93
2022-11-11T22:52:47.498Z,61.40
2022-11-11T22:55:34.103Z,58.75
2022-11-11T22:58:20.488Z,64.53
2022-11-11T23:01:24.937Z,61.38
2022-11-11T23:04:15.555Z,59.85
2022-11-11T23:07:01.883Z,61.17
2022-11-11T23:09:48.285Z,62.65
2022-11-11T23:12:34.784Z,62.33
2022-11-11T23:15:21.030Z,67.15
2022-11-11T23:18:07.523Z,65.72
2022-11-11T23:20:59.356Z,72.25
2022-11-11T23:23:47.724Z,79.45
2022-11-11T23:26:34.429Z,66.72
2022-11-11T23:29:20.738Z,65.68
2022-11-11T23:32:07.022Z,59.22
2022-11-11T23:34:53.336Z,69.43
2022-11-11T23:37:39.952Z,70.85
2022-11-11T23:40:26.215Z,71.57
2022-11-11T23:43:12.733Z,86.95
2022-11-11T23:45:59.354Z,69.28
2022-11-11T23:48:45.957Z,69.97
2022-11-11T23:51:32.275Z,97.05
2022-11-11T23:54:18.590Z,104.15
2022-11-11T23:57:04.822Z,97.50
2022-11-11T23:59:51.182Z,100.15
